createdAt,value
2018-06-03T00:00:44.733Z,17.70
2018-06-03T00:03:15.160Z,17.70
2018-06-03T00:05:45.401Z,17.70
2018-06-03T00:08:15.587Z,17.60
2018-06-03T00:10:45.790Z,17.60
2018-06-03T00:13:16.712Z,17.60
2018-06-03T00:15:47.529Z,17.50
2018-06-03T00:18:17.791Z,17.50
2018-06-03T00:21:05.015Z,17.50
2018-06-03T00:23:35.237Z,17.50
2018-06-03T00:26:05.738Z,17.50
2018-06-03T00:28:36.600Z,17.40
2018-06-03T00:31:07.465Z,17.50
2018-06-03T00:33:37.719Z,17.50
2018-06-03T00:36:24.811Z,17.40
2018-06-03T00:38:55.055Z,17.40
2018-06-03T00:41:25.361Z,17.40
2018-06-03T00:43:55.436Z,17.40
2018-06-03T00:46:25.577Z,17.40
2018-06-03T00:48:55.857Z,17.40
2018-06-03T00:51:26.021Z,17.50
2018-06-03T00:53:56.145Z,17.40
2018-06-03T00:56:42.919Z,17.40
2018-06-03T00:59:13.048Z,17.50
2018-06-03T01:01:43.310Z,17.50
2018-06-03T01:04:14.056Z,17.40
2018-06-03T01:06:44.625Z,17.40
2018-06-03T01:09:15.477Z,17.40
2018-06-03T01:11:45.760Z,17.40
2018-06-03T01:14:15.881Z,17.40
2018-06-03T01:16:46.201Z,17.40
2018-06-03T01:19:17.248Z,17.40
2018-06-03T01:21:47.668Z,17.40
2018-06-03T01:24:17.935Z,17.30
2018-06-03T01:26:48.189Z,17.20
2018-06-03T01:29:18.275Z,17.30
2018-06-03T01:31:48.567Z,17.30
2018-06-03T01:34:18.836Z,17.20
2018-06-03T01:36:49.300Z,17.20
2018-06-03T01:39:20.381Z,17.20
2018-06-03T01:41:51.007Z,17.20
2018-06-03T01:44:21.241Z,17.10
2018-06-03T01:46:52.057Z,17.10
2018-06-03T01:49:22.180Z,17.10
2018-06-03T01:51:52.509Z,17.10
2018-06-03T01:54:22.691Z,17.10
2018-06-03T01:56:52.977Z,17.10
2018-06-03T01:59:23.302Z,17.10
2018-06-03T02:01:53.724Z,17.10
2018-06-03T02:04:23.877Z,17.10
2018-06-03T02:06:54.389Z,17.00
2018-06-03T02:09:24.457Z,17.00
2018-06-03T02:11:54.624Z,16.90
2018-06-03T02:14:24.904Z,16.80
2018-06-03T02:16:55.475Z,16.80
2018-06-03T02:19:26.345Z,16.80
2018-06-03T02:21:57.485Z,16.70
2018-06-03T02:24:27.748Z,16.60
2018-06-03T02:26:58.640Z,16.60
2018-06-03T02:29:28.953Z,16.50
2018-06-03T02:31:59.326Z,16.50
2018-06-03T02:34:30.533Z,16.50
2018-06-03T02:37:00.826Z,16.50
2018-06-03T02:39:31.545Z,16.40
2018-06-03T02:42:02.507Z,16.30
2018-06-03T02:44:32.692Z,16.20
2018-06-03T02:47:03.009Z,16.10
2018-06-03T02:49:33.205Z,16.10
2018-06-03T02:52:03.481Z,15.80
2018-06-03T02:54:33.974Z,15.90
2018-06-03T02:57:04.321Z,15.90
2018-06-03T02:59:34.490Z,15.90
2018-06-03T03:02:04.733Z,15.80
2018-06-03T03:04:35.061Z,15.70
2018-06-03T03:07:05.436Z,15.60
2018-06-03T03:09:36.148Z,15.60
2018-06-03T03:12:07.125Z,15.60
2018-06-03T03:14:37.302Z,15.60
2018-06-03T03:17:07.638Z,15.60
2018-06-03T03:19:38.511Z,15.60
2018-06-03T03:22:09.281Z,15.60
2018-06-03T03:27:09.456Z,15.40
2018-06-03T03:29:40.072Z,15.20
2018-06-03T03:32:10.564Z,15.20
2018-06-03T03:34:40.888Z,15.20
2018-06-03T03:37:11.417Z,15.20
2018-06-03T03:39:41.614Z,15.30
2018-06-03T03:42:11.789Z,15.30
2018-06-03T03:44:41.978Z,15.40
2018-06-03T03:47:12.239Z,15.40
2018-06-03T03:49:42.652Z,15.50
2018-06-03T03:52:12.944Z,15.60
2018-06-03T03:54:44.266Z,15.60
2018-06-03T03:57:14.620Z,15.60
2018-06-03T03:59:44.860Z,15.60
2018-06-03T04:02:15.168Z,15.70
2018-06-03T04:04:45.357Z,15.80
2018-06-03T04:07:17.876Z,15.80
2018-06-03T04:09:48.681Z,15.90
2018-06-03T04:12:19.371Z,15.90
2018-06-03T04:14:49.465Z,16.00
2018-06-03T04:17:19.761Z,16.00
2018-06-03T04:19:49.991Z,16.00
2018-06-03T04:22:20.261Z,16.10
2018-06-03T04:24:50.253Z,16.10
2018-06-03T04:27:20.902Z,16.10
2018-06-03T04:29:51.949Z,16.20
2018-06-03T04:32:22.477Z,16.20
2018-06-03T04:34:53.160Z,16.20
2018-06-03T04:37:23.474Z,16.20
2018-06-03T04:39:54.055Z,16.20
2018-06-03T04:42:24.337Z,16.10
2018-06-03T04:44:54.532Z,16.10
2018-06-03T04:47:24.633Z,16.10
2018-06-03T04:49:55.514Z,16.20
2018-06-03T04:54:57.290Z,16.20
2018-06-03T04:57:27.816Z,16.20
2018-06-03T05:02:28.444Z,16.30
2018-06-03T05:05:00.410Z,16.40
2018-06-03T05:07:33.380Z,16.40
2018-06-03T05:10:03.613Z,16.40
2018-06-03T05:12:33.958Z,16.40
2018-06-03T05:15:04.281Z,16.50
2018-06-03T05:17:34.432Z,16.60
2018-06-03T05:20:04.776Z,16.60
2018-06-03T05:22:35.617Z,16.70
2018-06-03T05:25:06.434Z,16.80
2018-06-03T05:27:36.581Z,16.80
2018-06-03T05:30:06.965Z,16.90
2018-06-03T05:32:37.194Z,17.10
2018-06-03T05:35:08.085Z,17.20
2018-06-03T05:37:38.461Z,17.20
2018-06-03T05:40:08.896Z,17.30
2018-06-03T05:42:39.181Z,17.40
2018-06-03T05:47:39.309Z,17.50
2018-06-03T05:50:09.698Z,17.60
2018-06-03T05:52:40.568Z,17.70
2018-06-03T05:55:10.720Z,17.80
2018-06-03T05:57:40.956Z,17.90
2018-06-03T06:00:11.422Z,17.90
2018-06-03T06:02:42.528Z,18.00
2018-06-03T06:05:12.940Z,18.10
2018-06-03T06:07:43.489Z,18.20
2018-06-03T06:10:14.446Z,18.20
2018-06-03T06:12:46.137Z,18.30
2018-06-03T06:15:16.578Z,18.30
2018-06-03T06:17:46.903Z,18.40
2018-06-03T06:20:17.099Z,18.50
2018-06-03T06:22:47.730Z,18.60
2018-06-03T06:25:18.824Z,18.70
2018-06-03T06:27:49.196Z,18.70
2018-06-03T06:30:19.441Z,18.80
2018-06-03T06:32:49.640Z,18.90
2018-06-03T06:35:19.907Z,19.00
2018-06-03T06:37:50.757Z,19.10
2018-06-03T06:40:21.888Z,19.20
2018-06-03T06:42:52.365Z,19.20
2018-06-03T06:45:22.617Z,19.30
2018-06-03T06:47:52.752Z,19.40
2018-06-03T06:50:25.288Z,19.40
2018-06-03T06:52:55.457Z,19.50
2018-06-03T06:55:25.545Z,19.60
2018-06-03T06:58:00.121Z,19.70
2018-06-03T07:00:30.503Z,19.90
2018-06-03T07:03:00.865Z,20.00
2018-06-03T07:05:31.302Z,20.10
2018-06-03T07:08:01.553Z,20.20
2018-06-03T07:10:32.004Z,20.40
2018-06-03T07:13:02.147Z,20.50
2018-06-03T07:15:32.348Z,20.60
2018-06-03T07:18:02.693Z,20.80
2018-06-03T07:20:32.975Z,20.90
2018-06-03T07:23:03.349Z,21.00
2018-06-03T07:25:33.548Z,21.10
2018-06-03T07:28:03.846Z,21.20
2018-06-03T07:30:34.721Z,21.40
2018-06-03T07:33:05.117Z,21.50
2018-06-03T07:35:35.348Z,21.70
2018-06-03T07:38:05.796Z,21.80
2018-06-03T07:40:36.043Z,21.90
2018-06-03T07:43:07.006Z,22.00
2018-06-03T07:45:37.152Z,22.10
2018-06-03T07:48:08.025Z,22.30
2018-06-03T07:50:39.036Z,22.40
2018-06-03T07:53:09.579Z,22.50
2018-06-03T07:55:39.820Z,22.70
2018-06-03T07:58:11.209Z,22.80
2018-06-03T08:00:41.593Z,22.90
2018-06-03T08:03:14.796Z,23.00
2018-06-03T08:05:45.021Z,23.10
2018-06-03T08:08:15.481Z,23.20
2018-06-03T08:10:45.594Z,23.30
2018-06-03T08:13:15.984Z,23.40
2018-06-03T08:15:46.535Z,23.40
2018-06-03T08:18:17.830Z,23.50
2018-06-03T08:20:48.032Z,23.60
2018-06-03T08:23:18.120Z,23.70
2018-06-03T08:25:49.158Z,23.80
2018-06-03T08:28:19.912Z,23.90
2018-06-03T08:30:50.206Z,24.00
2018-06-03T08:33:22.868Z,24.10
2018-06-03T08:35:52.945Z,24.20
2018-06-03T08:38:23.590Z,24.30
2018-06-03T08:40:54.439Z,24.40
2018-06-03T08:43:25.134Z,24.50
2018-06-03T08:45:55.441Z,24.60
2018-06-03T08:48:25.890Z,24.80
2018-06-03T08:50:56.103Z,24.80
2018-06-03T08:53:26.685Z,24.90
2018-06-03T08:55:56.868Z,25.10
2018-06-03T08:58:27.485Z,25.10
2018-06-03T09:00:57.670Z,25.10
2018-06-03T09:03:27.944Z,25.30
2018-06-03T09:05:58.471Z,25.40
2018-06-03T09:08:28.819Z,25.50
2018-06-03T09:10:59.058Z,25.60
2018-06-03T09:13:30.381Z,25.90
2018-06-03T09:16:00.546Z,25.90
2018-06-03T09:18:30.813Z,25.90
2018-06-03T09:21:01.097Z,26.20
2018-06-03T09:23:31.748Z,26.10
2018-06-03T09:26:02.528Z,26.20
2018-06-03T09:28:32.892Z,26.30
2018-06-03T09:31:07.576Z,26.40
2018-06-03T09:33:38.685Z,26.30
2018-06-03T09:36:09.392Z,26.60
2018-06-03T09:38:40.199Z,26.80
2018-06-03T09:41:11.216Z,26.90
2018-06-03T09:43:41.654Z,27.10
2018-06-03T09:46:12.389Z,27.20
2018-06-03T09:48:43.019Z,27.30
2018-06-03T09:51:13.317Z,27.40
2018-06-03T09:53:44.014Z,27.50
2018-06-03T09:56:14.449Z,27.50
2018-06-03T09:58:45.069Z,27.60
2018-06-03T10:01:16.173Z,27.70
2018-06-03T10:03:47.143Z,27.70
2018-06-03T10:06:17.828Z,27.90
2018-06-03T10:08:47.937Z,28.30
2018-06-03T10:11:18.526Z,28.30
2018-06-03T10:13:48.764Z,28.50
2018-06-03T10:16:19.033Z,28.50
2018-06-03T10:18:49.455Z,28.70
2018-06-03T10:21:19.665Z,28.90
2018-06-03T10:23:49.962Z,28.90
2018-06-03T10:26:20.133Z,29.20
2018-06-03T10:28:50.956Z,29.40
2018-06-03T10:31:28.308Z,29.30
2018-06-03T10:33:59.337Z,29.20
2018-06-03T10:36:29.800Z,29.20
2018-06-03T10:39:01.196Z,29.20
2018-06-03T10:41:31.485Z,29.40
2018-06-03T10:44:01.861Z,29.50
2018-06-03T10:46:32.129Z,29.70
2018-06-03T10:49:02.707Z,29.70
2018-06-03T10:51:32.914Z,29.70
2018-06-03T10:54:03.432Z,29.80
2018-06-03T10:56:33.638Z,29.80
2018-06-03T10:59:04.022Z,29.80
2018-06-03T11:01:34.331Z,29.90
2018-06-03T11:04:04.653Z,30.00
2018-06-03T11:06:35.318Z,30.10
2018-06-03T11:09:07.408Z,29.90
2018-06-03T11:11:38.274Z,29.90
2018-06-03T11:14:09.393Z,30.00
2018-06-03T11:16:39.657Z,30.00
2018-06-03T11:19:10.064Z,30.00
2018-06-03T11:21:40.348Z,29.90
2018-06-03T11:24:11.005Z,30.00
2018-06-03T11:26:42.339Z,30.10
2018-06-03T11:29:13.721Z,30.20
2018-06-03T11:31:44.727Z,30.20
2018-06-03T11:34:15.647Z,30.00
2018-06-03T11:36:45.869Z,29.90
2018-06-03T11:39:16.737Z,29.80
2018-06-03T11:41:48.010Z,29.80
2018-06-03T11:44:19.142Z,29.70
2018-06-03T11:46:50.460Z,30.00
2018-06-03T11:49:21.574Z,30.20
2018-06-03T11:51:52.768Z,29.90
2018-06-03T11:54:24.022Z,30.00
2018-06-03T11:57:03.186Z,30.20
2018-06-03T11:59:44.349Z,30.00
2018-06-03T12:02:16.621Z,29.80
2018-06-03T12:04:47.218Z,30.00
2018-06-03T12:07:17.733Z,30.20
2018-06-03T12:09:48.541Z,30.40
2018-06-03T12:12:19.986Z,30.40
2018-06-03T12:14:50.919Z,30.50
2018-06-03T12:17:25.330Z,30.70
2018-06-03T12:19:56.510Z,30.70
2018-06-03T12:22:27.173Z,30.70
2018-06-03T12:24:57.693Z,30.80
2018-06-03T12:27:28.286Z,30.70
2018-06-03T12:29:58.782Z,30.50
2018-06-03T12:32:30.524Z,30.50
2018-06-03T12:35:01.955Z,30.50
2018-06-03T12:37:32.129Z,30.40
2018-06-03T12:40:02.433Z,30.00
2018-06-03T12:42:33.553Z,29.90
2018-06-03T12:45:04.032Z,29.80
2018-06-03T12:47:34.198Z,29.80
2018-06-03T12:50:04.593Z,29.90
2018-06-03T12:52:34.704Z,29.90
2018-06-03T12:55:05.063Z,30.00
2018-06-03T12:57:35.352Z,30.20
2018-06-03T13:00:05.957Z,30.30
2018-06-03T13:02:36.409Z,30.40
2018-06-03T13:05:07.739Z,30.70
2018-06-03T13:07:38.640Z,30.80
2018-06-03T13:10:09.545Z,31.10
2018-06-03T13:12:40.431Z,31.30
2018-06-03T13:15:10.861Z,31.30
2018-06-03T13:17:41.840Z,31.40
2018-06-03T13:20:13.385Z,31.60
2018-06-03T13:22:44.821Z,31.80
2018-06-03T13:25:15.008Z,31.80
2018-06-03T13:27:46.583Z,31.90
2018-06-03T13:30:17.183Z,31.80
2018-06-03T13:32:48.649Z,32.00
2018-06-03T13:35:19.579Z,32.10
2018-06-03T13:37:50.916Z,32.30
2018-06-03T13:40:21.236Z,32.40
2018-06-03T13:42:52.600Z,32.20
2018-06-03T13:45:23.166Z,32.30
2018-06-03T13:47:54.061Z,32.40
2018-06-03T13:50:24.321Z,32.30
2018-06-03T13:52:54.984Z,32.10
2018-06-03T13:55:25.101Z,32.20
2018-06-03T13:57:55.204Z,32.20
2018-06-03T14:00:26.289Z,32.00
2018-06-03T14:02:56.540Z,31.90
2018-06-03T14:05:26.793Z,31.80
2018-06-03T14:07:57.764Z,31.70
2018-06-03T14:10:28.373Z,31.60
2018-06-03T14:12:58.521Z,31.50
2018-06-03T14:15:28.718Z,31.60
2018-06-03T14:18:00.404Z,31.40
2018-06-03T14:20:31.526Z,31.30
2018-06-03T14:23:02.718Z,31.40
2018-06-03T14:25:34.021Z,31.40
2018-06-03T14:28:04.803Z,31.20
2018-06-03T14:30:35.073Z,31.10
2018-06-03T14:33:05.521Z,30.80
2018-06-03T14:35:36.484Z,30.90
2018-06-03T14:38:06.984Z,30.80
2018-06-03T14:40:38.109Z,30.70
2018-06-03T14:43:08.568Z,30.50
2018-06-03T14:45:39.508Z,30.30
2018-06-03T14:48:09.668Z,30.30
2018-06-03T14:50:40.088Z,30.30
2018-06-03T14:53:10.240Z,30.30
2018-06-03T14:55:40.589Z,30.10
2018-06-03T14:58:10.869Z,30.10
2018-06-03T15:00:42.247Z,30.20
2018-06-03T15:03:12.420Z,30.20
2018-06-03T15:05:42.627Z,30.40
2018-06-03T15:08:12.745Z,30.30
2018-06-03T15:10:43.720Z,30.20
2018-06-03T15:13:13.991Z,30.20
2018-06-03T15:15:44.995Z,30.10
2018-06-03T15:18:16.286Z,29.90
2018-06-03T15:20:46.841Z,29.80
2018-06-03T15:23:17.047Z,29.60
2018-06-03T15:25:47.520Z,29.40
2018-06-03T15:28:18.280Z,29.40
2018-06-03T15:30:49.026Z,29.20
2018-06-03T15:33:19.171Z,29.20
2018-06-03T15:35:49.819Z,29.30
2018-06-03T15:38:20.983Z,29.00
2018-06-03T15:40:51.377Z,29.00
2018-06-03T15:43:21.785Z,28.90
2018-06-03T15:45:53.944Z,28.80
2018-06-03T15:48:24.976Z,28.80
2018-06-03T15:50:56.274Z,28.70
2018-06-03T15:53:26.513Z,28.60
2018-06-03T15:55:57.472Z,28.60
2018-06-03T15:58:27.672Z,28.50
2018-06-03T16:00:59.298Z,28.60
2018-06-03T16:03:29.547Z,28.50
2018-06-03T16:05:59.686Z,28.50
2018-06-03T16:08:29.864Z,28.50
2018-06-03T16:11:01.683Z,28.50
2018-06-03T16:13:32.011Z,28.50
2018-06-03T16:16:02.827Z,28.50
2018-06-03T16:18:33.444Z,28.50
2018-06-03T16:21:03.897Z,28.50
2018-06-03T16:23:34.976Z,28.40
2018-06-03T16:26:05.899Z,28.30
2018-06-03T16:28:36.289Z,28.20
2018-06-03T16:31:06.563Z,28.00
2018-06-03T16:33:36.948Z,27.90
2018-06-03T16:36:08.150Z,27.80
2018-06-03T16:38:38.954Z,27.70
2018-06-03T16:41:09.936Z,27.70
2018-06-03T16:43:40.240Z,27.70
2018-06-03T16:46:11.152Z,27.70
2018-06-03T16:48:41.461Z,27.70
2018-06-03T16:51:12.651Z,27.70
2018-06-03T16:53:42.803Z,27.70
2018-06-03T16:56:12.988Z,27.60
2018-06-03T16:58:43.176Z,27.50
2018-06-03T17:01:13.900Z,27.40
2018-06-03T17:03:44.473Z,27.30
2018-06-03T17:06:15.557Z,27.30
2018-06-03T17:08:46.080Z,27.20
2018-06-03T17:11:16.764Z,27.10
2018-06-03T17:13:47.224Z,27.10
2018-06-03T17:16:17.736Z,27.10
2018-06-03T17:18:48.532Z,27.10
2018-06-03T17:21:19.005Z,27.10
2018-06-03T17:23:49.268Z,27.00
2018-06-03T17:26:20.200Z,27.00
2018-06-03T17:28:50.764Z,27.00
2018-06-03T17:33:52.363Z,26.90
2018-06-03T17:36:22.914Z,26.80
2018-06-03T17:38:53.084Z,26.80
2018-06-03T17:41:23.400Z,26.70
2018-06-03T17:43:53.586Z,26.70
2018-06-03T17:46:23.913Z,26.50
2018-06-03T17:48:55.928Z,26.50
2018-06-03T17:51:28.389Z,26.40
2018-06-03T17:53:58.578Z,26.30
2018-06-03T17:56:30.198Z,26.30
2018-06-03T17:59:01.792Z,26.20
2018-06-03T18:01:33.827Z,26.10
2018-06-03T18:04:04.934Z,26.00
2018-06-03T18:06:36.120Z,25.90
2018-06-03T18:09:10.246Z,25.80
2018-06-03T18:11:41.633Z,25.80
2018-06-03T18:14:15.214Z,25.70
2018-06-03T18:16:46.753Z,25.60
2018-06-03T18:19:19.399Z,25.50
2018-06-03T18:21:51.300Z,25.40
2018-06-03T18:24:23.377Z,25.30
2018-06-03T18:26:54.564Z,25.30
2018-06-03T18:29:25.230Z,25.20
2018-06-03T18:31:55.778Z,25.10
2018-06-03T18:34:26.034Z,25.00
2018-06-03T18:36:56.423Z,24.90
2018-06-03T18:39:26.827Z,24.80
2018-06-03T18:41:57.221Z,24.80
2018-06-03T18:44:28.147Z,24.70
2018-06-03T18:46:59.386Z,24.60
2018-06-03T18:49:29.604Z,24.50
2018-06-03T18:52:00.484Z,24.40
2018-06-03T18:54:32.817Z,24.30
2018-06-03T18:57:03.957Z,24.20
2018-06-03T18:59:34.116Z,24.10
2018-06-03T19:02:04.431Z,24.00
2018-06-03T19:04:34.794Z,23.90
2018-06-03T19:07:05.620Z,23.80
2018-06-03T19:09:36.308Z,23.70
2018-06-03T19:12:08.025Z,23.70
2018-06-03T19:14:38.330Z,23.60
2018-06-03T19:17:08.667Z,23.50
2018-06-03T19:19:39.373Z,23.50
2018-06-03T19:22:09.806Z,23.40
2018-06-03T19:24:40.550Z,23.30
2018-06-03T19:27:11.132Z,23.30
2018-06-03T19:29:41.615Z,23.20
2018-06-03T19:34:43.252Z,23.10
2018-06-03T19:37:13.628Z,23.00
2018-06-03T19:39:43.853Z,23.00
2018-06-03T19:42:14.390Z,23.00
2018-06-03T19:44:46.234Z,22.90
2018-06-03T19:47:16.972Z,22.80
2018-06-03T19:49:47.801Z,22.70
2018-06-03T19:52:18.767Z,22.70
2018-06-03T19:54:49.115Z,22.60
2018-06-03T19:57:19.800Z,22.60
2018-06-03T19:59:50.752Z,22.50
2018-06-03T20:02:21.595Z,22.30
2018-06-03T20:04:53.914Z,22.20
2018-06-03T20:07:26.933Z,22.20
2018-06-03T20:09:58.122Z,22.10
2018-06-03T20:12:29.256Z,22.10
2018-06-03T20:15:00.532Z,22.00
2018-06-03T20:17:32.024Z,22.00
2018-06-03T20:20:03.302Z,21.90
2018-06-03T20:22:34.813Z,21.80
2018-06-03T20:25:05.732Z,21.70
2018-06-03T20:27:37.477Z,21.60
2018-06-03T20:30:08.438Z,21.50
2018-06-03T20:32:39.265Z,21.40
2018-06-03T20:35:10.308Z,21.40
2018-06-03T20:37:41.020Z,21.30
2018-06-03T20:40:12.034Z,21.30
2018-06-03T20:42:43.432Z,21.20
2018-06-03T20:45:14.666Z,21.20
2018-06-03T20:47:45.805Z,21.10
2018-06-03T20:50:16.706Z,21.00
2018-06-03T20:52:47.039Z,20.80
2018-06-03T20:55:17.784Z,20.80
2018-06-03T20:57:49.276Z,20.80
2018-06-03T21:00:21.316Z,20.80
2018-06-03T21:02:53.433Z,20.70
2018-06-03T21:05:23.739Z,20.60
2018-06-03T21:07:54.772Z,20.60
2018-06-03T21:10:25.363Z,20.50
2018-06-03T21:12:55.981Z,20.50
2018-06-03T21:15:26.822Z,20.40
2018-06-03T21:17:57.903Z,20.30
2018-06-03T21:20:28.204Z,20.30
2018-06-03T21:22:58.988Z,20.20
2018-06-03T21:25:30.126Z,20.10
2018-06-03T21:28:00.944Z,20.10
2018-06-03T21:30:31.128Z,20.00
2018-06-03T21:33:01.629Z,20.00
2018-06-03T21:35:32.221Z,19.90
2018-06-03T21:38:02.745Z,19.90
2018-06-03T21:40:33.364Z,19.90
2018-06-03T21:43:05.388Z,19.90
2018-06-03T21:45:35.999Z,19.90
2018-06-03T21:48:06.599Z,19.90
2018-06-03T21:50:37.358Z,19.90
2018-06-03T21:53:08.037Z,19.80
2018-06-03T21:55:38.433Z,19.70
2018-06-03T21:58:09.400Z,19.70
2018-06-03T22:00:40.032Z,19.60
2018-06-03T22:03:11.174Z,19.60
2018-06-03T22:05:41.448Z,19.60
2018-06-03T22:08:12.103Z,19.50
2018-06-03T22:10:43.097Z,19.50
2018-06-03T22:13:13.410Z,19.50
2018-06-03T22:15:44.025Z,19.40
2018-06-03T22:18:14.556Z,19.30
2018-06-03T22:20:44.616Z,19.20
2018-06-03T22:23:14.859Z,19.10
2018-06-03T22:25:45.181Z,19.10
2018-06-03T22:28:15.817Z,19.10
2018-06-03T22:30:45.964Z,19.00
2018-06-03T22:33:16.201Z,18.90
2018-06-03T22:35:46.742Z,18.80
2018-06-03T22:38:17.640Z,18.80
2018-06-03T22:40:47.801Z,18.80
2018-06-03T22:43:18.450Z,18.70
2018-06-03T22:45:48.575Z,18.70
2018-06-03T22:48:18.864Z,18.60
2018-06-03T22:50:49.206Z,18.60
2018-06-03T22:53:19.764Z,18.50
2018-06-03T22:55:50.061Z,18.50
2018-06-03T22:58:20.550Z,18.50
2018-06-03T23:00:50.838Z,18.50
2018-06-03T23:03:21.536Z,18.50
2018-06-03T23:05:51.574Z,18.50
2018-06-03T23:08:22.258Z,18.50
2018-06-03T23:10:54.300Z,18.40
2018-06-03T23:13:24.529Z,18.40
2018-06-03T23:15:54.718Z,18.40
2018-06-03T23:18:27.442Z,18.40
2018-06-03T23:20:57.718Z,18.30
2018-06-03T23:23:28.008Z,18.30
2018-06-03T23:25:58.330Z,18.30
2018-06-03T23:28:28.805Z,18.30
2018-06-03T23:30:59.064Z,18.30
2018-06-03T23:33:29.987Z,18.30
2018-06-03T23:36:00.188Z,18.20
2018-06-03T23:38:30.673Z,18.20
2018-06-03T23:41:00.969Z,18.20
2018-06-03T23:43:31.565Z,18.20
2018-06-03T23:46:02.446Z,18.20
2018-06-03T23:48:33.084Z,18.20
2018-06-03T23:51:03.928Z,18.20
2018-06-03T23:53:34.328Z,18.20
2018-06-03T23:56:04.634Z,18.10
2018-06-03T23:58:35.765Z,18.10
